createdAt,value
2023-03-29T00:00:14.410Z,100.00
2023-03-29T00:01:35.075Z,100.00
2023-03-29T00:02:41.283Z,100.00
2023-03-29T00:03:45.906Z,100.00
2023-03-29T00:04:53.607Z,100.00
2023-03-29T00:06:03.169Z,100.00
2023-03-29T00:07:07.908Z,100.00
2023-03-29T00:08:14.668Z,100.00
2023-03-29T00:09:22.239Z,100.00
2023-03-29T00:10:24.368Z,100.00
2023-03-29T00:11:29.473Z,100.00
2023-03-29T00:12:31.907Z,100.00
2023-03-29T00:13:36.959Z,100.00
2023-03-29T00:14:39.073Z,100.00
2023-03-29T00:15:45.089Z,100.00
2023-03-29T00:16:47.265Z,100.00
2023-03-29T00:17:52.370Z,100.00
2023-03-29T00:18:54.545Z,100.00
2023-03-29T00:19:59.334Z,100.00
2023-03-29T00:21:01.700Z,100.00
2023-03-29T00:22:07.486Z,100.00
2023-03-29T00:23:09.657Z,100.00
2023-03-29T00:24:14.327Z,100.00
2023-03-29T00:25:19.130Z,100.00
2023-03-29T00:26:24.137Z,100.00
2023-03-29T00:27:26.324Z,100.00
2023-03-29T00:28:31.489Z,100.00
2023-03-29T00:29:34.066Z,100.00
2023-03-29T00:30:38.748Z,100.00
2023-03-29T00:31:40.955Z,100.00
2023-03-29T00:32:46.251Z,100.00
2023-03-29T00:33:48.478Z,100.00
2023-03-29T00:34:53.569Z,100.00
2023-03-29T00:35:55.721Z,100.00
2023-03-29T00:37:00.527Z,100.00
2023-03-29T00:38:02.638Z,100.00
2023-03-29T00:39:07.521Z,100.00
2023-03-29T00:40:12.221Z,100.00
2023-03-29T00:41:19.504Z,100.00
2023-03-29T00:42:21.679Z,100.00
2023-03-29T00:43:26.846Z,100.00
2023-03-29T00:44:58.462Z,100.00
2023-03-29T00:46:03.212Z,100.00
2023-03-29T00:47:05.399Z,100.00
2023-03-29T00:48:13.756Z,100.00
2023-03-29T00:49:15.935Z,100.00
2023-03-29T00:50:26.449Z,100.00
2023-03-29T00:51:34.432Z,100.00
2023-03-29T00:52:39.847Z,100.00
2023-03-29T00:53:48.574Z,100.00
2023-03-29T00:54:58.416Z,100.00
2023-03-29T00:56:04.571Z,100.00
2023-03-29T00:57:13.845Z,100.00
2023-03-29T00:58:26.551Z,100.00
2023-03-29T00:59:33.032Z,100.00
2023-03-29T01:00:40.940Z,100.00
2023-03-29T01:01:46.911Z,100.00
2023-03-29T01:02:55.994Z,100.00
2023-03-29T01:04:03.485Z,100.00
2023-03-29T01:05:12.249Z,100.00
2023-03-29T01:06:17.077Z,100.00
2023-03-29T01:07:26.181Z,100.00
2023-03-29T01:08:32.861Z,100.00
2023-03-29T01:09:41.972Z,100.00
2023-03-29T01:10:50.275Z,100.00
2023-03-29T01:11:57.690Z,100.00
2023-03-29T01:13:07.038Z,100.00
2023-03-29T01:14:18.490Z,100.00
2023-03-29T01:15:25.728Z,100.00
2023-03-29T01:16:33.153Z,100.00
2023-03-29T01:17:35.591Z,100.00
2023-03-29T01:18:42.138Z,100.00
2023-03-29T01:19:50.317Z,100.00
2023-03-29T01:21:17.112Z,100.00
2023-03-29T01:22:29.070Z,100.00
2023-03-29T01:23:53.936Z,100.00
2023-03-29T01:25:07.692Z,100.00
2023-03-29T01:26:19.912Z,100.00
2023-03-29T01:27:47.411Z,100.00
2023-03-29T01:28:53.281Z,100.00
2023-03-29T01:30:03.615Z,100.00
2023-03-29T01:31:11.384Z,100.00
2023-03-29T01:32:20.027Z,100.00
2023-03-29T01:33:25.914Z,100.00
2023-03-29T01:34:37.875Z,100.00
2023-03-29T01:35:44.978Z,100.00
2023-03-29T01:37:00.509Z,100.00
2023-03-29T01:38:08.891Z,100.00
2023-03-29T01:39:13.638Z,100.00
2023-03-29T01:40:15.974Z,100.00
2023-03-29T01:41:20.682Z,100.00
2023-03-29T01:42:46.801Z,100.00
2023-03-29T01:43:54.937Z,100.00
2023-03-29T01:45:10.277Z,100.00
2023-03-29T01:46:21.858Z,100.00
2023-03-29T01:47:31.460Z,100.00
2023-03-29T01:48:53.322Z,100.00
2023-03-29T01:50:07.053Z,100.00
2023-03-29T01:51:16.355Z,100.00
2023-03-29T01:52:25.954Z,100.00
2023-03-29T01:53:36.847Z,100.00
2023-03-29T01:54:43.603Z,100.00
2023-03-29T01:55:53.196Z,100.00
2023-03-29T01:56:57.499Z,100.00
2023-03-29T01:58:08.598Z,100.00
2023-03-29T01:59:14.047Z,100.00
2023-03-29T02:00:22.504Z,100.00
2023-03-29T02:01:28.548Z,100.00
2023-03-29T02:02:34.741Z,100.00
2023-03-29T02:03:42.696Z,100.00
2023-03-29T02:04:52.432Z,100.00
2023-03-29T02:05:55.817Z,100.00
2023-03-29T02:07:02.719Z,100.00
2023-03-29T02:08:08.266Z,100.00
2023-03-29T02:09:13.005Z,100.00
2023-03-29T02:10:17.890Z,100.00
2023-03-29T02:11:23.525Z,100.00
2023-03-29T02:12:25.812Z,100.00
2023-03-29T02:13:33.189Z,100.00
2023-03-29T02:14:35.755Z,100.00
2023-03-29T02:15:40.632Z,100.00
2023-03-29T02:16:42.853Z,100.00
2023-03-29T02:17:48.271Z,100.00
2023-03-29T02:18:53.051Z,100.00
2023-03-29T02:20:08.202Z,100.00
2023-03-29T02:21:16.511Z,100.00
2023-03-29T02:22:28.790Z,100.00
2023-03-29T02:23:35.384Z,100.00
2023-03-29T02:24:42.548Z,100.00
2023-03-29T02:25:46.740Z,100.00
2023-03-29T02:26:52.847Z,100.00
2023-03-29T02:27:56.115Z,100.00
2023-03-29T02:29:03.784Z,100.00
2023-03-29T02:30:08.944Z,100.00
2023-03-29T02:31:19.238Z,100.00
2023-03-29T02:32:27.598Z,100.00
2023-03-29T02:33:37.627Z,100.00
2023-03-29T02:34:47.865Z,100.00
2023-03-29T02:35:57.393Z,100.00
2023-03-29T02:37:03.479Z,100.00
2023-03-29T02:38:12.429Z,100.00
2023-03-29T02:39:16.597Z,100.00
2023-03-29T02:40:22.530Z,100.00
2023-03-29T02:41:26.232Z,100.00
2023-03-29T02:42:32.049Z,100.00
2023-03-29T02:43:36.011Z,100.00
2023-03-29T02:44:45.246Z,100.00
2023-03-29T02:46:00.772Z,100.00
2023-03-29T02:47:10.716Z,100.00
2023-03-29T02:48:17.557Z,100.00
2023-03-29T02:49:22.550Z,100.00
2023-03-29T02:50:27.593Z,100.00
2023-03-29T02:51:36.272Z,100.00
2023-03-29T02:52:42.932Z,100.00
2023-03-29T02:53:52.684Z,100.00
2023-03-29T02:54:56.083Z,100.00
2023-03-29T02:56:02.393Z,100.00
2023-03-29T02:57:06.655Z,100.00
2023-03-29T02:58:13.604Z,100.00
2023-03-29T02:59:17.298Z,100.00
2023-03-29T03:00:24.882Z,100.00
2023-03-29T03:01:27.065Z,100.00
2023-03-29T03:02:31.768Z,100.00
2023-03-29T03:03:34.138Z,100.00
2023-03-29T03:04:38.935Z,100.00
2023-03-29T03:05:41.199Z,100.00
2023-03-29T03:06:45.932Z,100.00
2023-03-29T03:07:47.982Z,100.00
2023-03-29T03:08:52.899Z,100.00
2023-03-29T03:09:54.967Z,100.00
2023-03-29T03:10:59.943Z,100.00
2023-03-29T03:12:02.258Z,100.00
2023-03-29T03:13:07.337Z,100.00
2023-03-29T03:14:09.452Z,100.00
2023-03-29T03:15:14.868Z,100.00
2023-03-29T03:16:19.627Z,100.00
2023-03-29T03:17:25.476Z,100.00
2023-03-29T03:18:27.884Z,100.00
2023-03-29T03:19:32.553Z,100.00
2023-03-29T03:20:34.944Z,100.00
2023-03-29T03:21:39.791Z,100.00
2023-03-29T03:22:44.125Z,100.00
2023-03-29T03:23:48.863Z,100.00
2023-03-29T03:24:51.056Z,100.00
2023-03-29T03:25:56.400Z,100.00
2023-03-29T03:26:58.499Z,100.00
2023-03-29T03:28:03.159Z,100.00
2023-03-29T03:29:05.543Z,100.00
2023-03-29T03:30:12.009Z,100.00
2023-03-29T03:31:14.219Z,100.00
2023-03-29T03:32:21.684Z,100.00
2023-03-29T03:33:24.307Z,100.00
2023-03-29T03:34:29.534Z,100.00
2023-03-29T03:35:35.091Z,100.00
2023-03-29T03:36:40.002Z,100.00
2023-03-29T03:37:45.470Z,100.00
2023-03-29T03:38:47.869Z,100.00
2023-03-29T03:39:52.556Z,100.00
2023-03-29T03:40:55.253Z,100.00
2023-03-29T03:41:59.927Z,100.00
2023-03-29T03:43:04.552Z,100.00
2023-03-29T03:44:06.743Z,100.00
2023-03-29T03:45:12.783Z,100.00
2023-03-29T03:46:15.101Z,100.00
2023-03-29T03:47:22.925Z,100.00
2023-03-29T03:48:25.726Z,100.00
2023-03-29T03:49:30.695Z,100.00
2023-03-29T03:50:33.688Z,100.00
2023-03-29T03:51:38.312Z,100.00
2023-03-29T03:52:40.399Z,100.00
2023-03-29T03:53:45.067Z,100.00
2023-03-29T03:54:48.332Z,100.00
2023-03-29T03:55:54.449Z,100.00
2023-03-29T03:56:59.196Z,100.00
2023-03-29T03:58:01.308Z,100.00
2023-03-29T03:59:06.025Z,100.00
2023-03-29T04:00:19.924Z,100.00
2023-03-29T04:01:24.747Z,100.00
2023-03-29T04:02:29.445Z,100.00
2023-03-29T04:03:34.671Z,100.00
2023-03-29T04:04:37.118Z,100.00
2023-03-29T04:05:42.112Z,100.00
2023-03-29T04:06:44.381Z,100.00
2023-03-29T04:07:49.118Z,100.00
2023-03-29T04:08:51.835Z,100.00
2023-03-29T04:09:56.489Z,100.00
2023-03-29T04:11:00.456Z,100.00
2023-03-29T04:12:05.268Z,100.00
2023-03-29T04:13:07.374Z,100.00
2023-03-29T04:14:12.054Z,100.00
2023-03-29T04:15:14.245Z,100.00
2023-03-29T04:16:18.913Z,100.00
2023-03-29T04:17:21.511Z,100.00
2023-03-29T04:21:54.445Z,100.00
2023-03-29T04:22:56.528Z,100.00
2023-03-29T04:24:01.160Z,100.00
2023-03-29T04:25:03.289Z,100.00
2023-03-29T04:27:23.229Z,100.00
2023-03-29T04:28:25.312Z,100.00
2023-03-29T04:29:29.998Z,100.00
2023-03-29T04:30:32.073Z,100.00
2023-03-29T04:31:36.761Z,100.00
2023-03-29T04:32:39.233Z,100.00
2023-03-29T04:33:46.934Z,100.00
2023-03-29T04:34:49.036Z,100.00
2023-03-29T04:35:53.705Z,100.00
2023-03-29T04:36:59.137Z,100.00
2023-03-29T04:38:04.567Z,100.00
2023-03-29T04:39:08.070Z,100.00
2023-03-29T04:40:15.122Z,100.00
2023-03-29T04:41:17.254Z,100.00
2023-03-29T04:42:21.922Z,100.00
2023-03-29T04:43:24.068Z,100.00
2023-03-29T04:44:29.264Z,100.00
2023-03-29T04:45:31.596Z,100.00
2023-03-29T04:46:38.902Z,100.00
2023-03-29T04:47:43.722Z,100.00
2023-03-29T04:48:45.793Z,100.00
2023-03-29T04:49:50.473Z,100.00
2023-03-29T04:50:54.604Z,100.00
2023-03-29T04:52:01.794Z,100.00
2023-03-29T04:53:03.857Z,100.00
2023-03-29T04:54:08.644Z,100.00
2023-03-29T04:55:11.847Z,100.00
2023-03-29T04:56:16.610Z,100.00
2023-03-29T04:57:18.729Z,100.00
2023-03-29T04:58:26.121Z,100.00
2023-03-29T04:59:30.808Z,100.00
2023-03-29T05:00:35.481Z,100.00
2023-03-29T05:01:37.830Z,100.00
2023-03-29T05:02:42.657Z,100.00
2023-03-29T05:03:44.991Z,100.00
2023-03-29T05:04:50.635Z,100.00
2023-03-29T05:05:53.598Z,100.00
2023-03-29T05:07:02.370Z,100.00
2023-03-29T05:08:04.840Z,100.00
2023-03-29T05:09:10.733Z,100.00
2023-03-29T05:10:12.808Z,100.00
2023-03-29T05:11:17.720Z,100.00
2023-03-29T05:12:19.783Z,100.00
2023-03-29T05:13:24.409Z,100.00
2023-03-29T05:14:26.402Z,100.00
2023-03-29T05:15:31.252Z,100.00
2023-03-29T05:16:34.734Z,100.00
2023-03-29T05:17:39.870Z,100.00
2023-03-29T05:18:42.055Z,100.00
2023-03-29T05:19:46.977Z,100.00
2023-03-29T05:20:51.287Z,100.00
2023-03-29T05:21:55.947Z,100.00
2023-03-29T05:23:00.620Z,100.00
2023-03-29T05:24:06.214Z,100.00
2023-03-29T05:25:13.542Z,100.00
2023-03-29T05:26:15.773Z,100.00
2023-03-29T05:27:21.200Z,100.00
2023-03-29T05:28:23.357Z,100.00
2023-03-29T05:29:28.125Z,100.00
2023-03-29T05:30:30.192Z,100.00
2023-03-29T05:31:35.426Z,100.00
2023-03-29T05:32:38.312Z,100.00
2023-03-29T05:33:43.072Z,100.00
2023-03-29T05:34:45.332Z,100.00
2023-03-29T05:35:50.006Z,100.00
2023-03-29T05:36:52.129Z,100.00
2023-03-29T05:37:56.766Z,100.00
2023-03-29T05:39:02.079Z,100.00
2023-03-29T05:40:10.306Z,100.00
2023-03-29T05:41:13.267Z,100.00
2023-03-29T05:42:22.508Z,100.00
2023-03-29T05:43:25.004Z,100.00
2023-03-29T05:44:29.678Z,100.00
2023-03-29T05:45:33.505Z,100.00
2023-03-29T05:46:38.876Z,100.00
2023-03-29T05:47:40.946Z,100.00
2023-03-29T05:48:45.630Z,100.00
2023-03-29T05:49:47.647Z,100.00
2023-03-29T05:50:53.652Z,100.00
2023-03-29T05:51:57.305Z,100.00
2023-03-29T05:53:01.965Z,100.00
2023-03-29T05:54:07.174Z,100.00
2023-03-29T05:55:13.025Z,100.00
2023-03-29T05:56:16.583Z,100.00
2023-03-29T05:57:21.265Z,100.00
2023-03-29T05:58:26.803Z,100.00
2023-03-29T05:59:32.350Z,100.00
2023-03-29T06:00:38.765Z,100.00
2023-03-29T06:01:40.838Z,100.00
2023-03-29T06:02:45.705Z,100.00
2023-03-29T06:03:50.495Z,100.00
2023-03-29T06:04:55.601Z,100.00
2023-03-29T06:05:59.588Z,100.00
2023-03-29T06:07:05.336Z,100.00
2023-03-29T06:08:10.172Z,100.00
2023-03-29T06:09:17.590Z,100.00
2023-03-29T06:10:23.716Z,100.00
2023-03-29T06:11:28.376Z,100.00
2023-03-29T06:12:31.188Z,100.00
2023-03-29T06:13:37.354Z,100.00
2023-03-29T06:14:41.965Z,100.00
2023-03-29T06:15:45.240Z,100.00
2023-03-29T06:16:50.334Z,100.00
2023-03-29T06:17:55.219Z,100.00
2023-03-29T06:19:00.036Z,100.00
2023-03-29T06:20:02.621Z,100.00
2023-03-29T06:21:08.196Z,100.00
2023-03-29T06:22:14.795Z,100.00
2023-03-29T06:23:17.282Z,100.00
2023-03-29T06:24:25.250Z,100.00
2023-03-29T06:25:30.212Z,100.00
2023-03-29T06:26:35.442Z,100.00
2023-03-29T06:27:37.547Z,100.00
2023-03-29T06:28:42.278Z,100.00
2023-03-29T06:29:44.292Z,100.00
2023-03-29T06:30:49.547Z,100.00
2023-03-29T06:31:51.934Z,100.00
2023-03-29T06:32:57.987Z,100.00
2023-03-29T06:34:00.115Z,100.00
2023-03-29T06:35:05.197Z,100.00
2023-03-29T06:36:08.331Z,100.00
2023-03-29T06:37:13.087Z,100.00
2023-03-29T06:38:15.598Z,100.00
2023-03-29T06:39:20.211Z,100.00
2023-03-29T06:40:25.069Z,100.00
2023-03-29T06:41:29.692Z,100.00
2023-03-29T06:42:31.794Z,100.00
2023-03-29T06:43:36.780Z,100.00
2023-03-29T06:44:41.502Z,100.00
2023-03-29T06:45:43.877Z,100.00
2023-03-29T06:46:48.642Z,100.00
2023-03-29T06:47:53.894Z,100.00
2023-03-29T06:48:58.653Z,99.63
2023-03-29T06:50:00.707Z,96.03
2023-03-29T06:51:05.338Z,93.29
2023-03-29T06:52:10.034Z,95.77
2023-03-29T06:53:15.840Z,95.54
2023-03-29T06:54:20.495Z,97.05
2023-03-29T06:57:25.837Z,95.09
2023-03-29T06:58:28.174Z,93.41
2023-03-29T06:59:33.564Z,94.59
2023-03-29T07:00:39.596Z,95.04
2023-03-29T07:01:45.282Z,94.36
2023-03-29T07:02:47.643Z,93.48
2023-03-29T07:03:52.480Z,94.78
2023-03-29T07:04:54.660Z,94.09
2023-03-29T07:06:04.555Z,96.17
2023-03-29T07:07:19.949Z,94.44
2023-03-29T07:08:31.422Z,92.38
2023-03-29T07:09:36.279Z,91.33
2023-03-29T07:10:40.236Z,91.13
2023-03-29T07:11:45.783Z,93.22
2023-03-29T07:12:54.386Z,93.64
2023-03-29T07:13:59.023Z,90.68
2023-03-29T07:15:01.589Z,92.19
2023-03-29T07:16:06.877Z,90.20
2023-03-29T07:17:08.956Z,90.57
2023-03-29T07:18:14.172Z,91.34
2023-03-29T07:19:16.241Z,90.97
2023-03-29T07:20:22.314Z,86.92
2023-03-29T07:21:28.967Z,86.61
2023-03-29T07:22:31.388Z,89.08
2023-03-29T07:23:36.172Z,88.70
2023-03-29T07:24:38.364Z,90.52
2023-03-29T07:25:43.551Z,90.71
2023-03-29T07:27:04.268Z,91.96
2023-03-29T07:28:11.854Z,94.15
2023-03-29T07:29:16.449Z,96.00
2023-03-29T07:30:21.392Z,95.30
2023-03-29T07:31:26.058Z,97.78
2023-03-29T07:32:30.997Z,95.98
2023-03-29T07:33:35.937Z,92.84
2023-03-29T07:34:40.633Z,93.06
2023-03-29T07:35:44.055Z,90.41
2023-03-29T07:36:48.720Z,93.40
2023-03-29T07:37:51.171Z,88.44
2023-03-29T07:38:56.935Z,89.89
2023-03-29T07:40:00.248Z,88.38
2023-03-29T07:41:06.909Z,87.40
2023-03-29T07:42:11.696Z,85.00
2023-03-29T07:43:19.075Z,84.50
2023-03-29T07:44:23.867Z,85.65
2023-03-29T07:45:30.122Z,82.43
2023-03-29T07:46:35.832Z,82.01
2023-03-29T07:47:38.552Z,82.75
2023-03-29T07:48:43.265Z,84.54
2023-03-29T07:49:48.076Z,82.06
2023-03-29T07:50:52.739Z,85.20
2023-03-29T07:51:57.798Z,81.79
2023-03-29T07:53:03.552Z,80.55
2023-03-29T07:54:08.442Z,80.94
2023-03-29T07:55:12.825Z,80.19
2023-03-29T07:56:17.433Z,82.11
2023-03-29T07:57:19.553Z,83.42
2023-03-29T07:58:27.627Z,82.80
2023-03-29T07:59:29.724Z,86.12
2023-03-29T08:00:34.500Z,84.17
2023-03-29T08:01:41.110Z,84.86
2023-03-29T08:02:44.182Z,84.62
2023-03-29T08:03:48.924Z,85.81
2023-03-29T08:04:53.653Z,83.38
2023-03-29T08:05:58.485Z,82.05
2023-03-29T08:07:00.662Z,86.83
2023-03-29T08:08:05.340Z,82.58
2023-03-29T08:09:07.368Z,83.58
2023-03-29T08:10:14.208Z,79.58
2023-03-29T08:11:16.236Z,83.04
2023-03-29T08:12:23.149Z,82.15
2023-03-29T08:13:32.191Z,81.37
2023-03-29T08:14:34.590Z,81.38
2023-03-29T08:15:42.240Z,80.44
2023-03-29T08:16:44.356Z,78.75
2023-03-29T08:17:49.297Z,81.04
2023-03-29T08:18:51.559Z,81.20
2023-03-29T08:19:56.264Z,82.97
2023-03-29T08:21:01.207Z,81.00
2023-03-29T08:22:06.192Z,80.22
2023-03-29T08:23:10.931Z,81.71
2023-03-29T08:24:15.681Z,82.35
2023-03-29T08:25:20.486Z,82.66
2023-03-29T08:26:25.219Z,82.67
2023-03-29T08:27:27.348Z,79.75
2023-03-29T08:28:34.709Z,78.69
2023-03-29T08:29:36.802Z,79.82
2023-03-29T08:30:41.504Z,77.27
2023-03-29T08:31:46.279Z,78.48
2023-03-29T08:32:50.973Z,80.35
2023-03-29T08:33:57.153Z,81.96
2023-03-29T08:34:59.495Z,81.98
2023-03-29T08:36:04.208Z,77.07
2023-03-29T08:37:06.372Z,78.64
2023-03-29T08:38:11.429Z,78.44
2023-03-29T08:39:13.527Z,79.97
2023-03-29T08:40:22.676Z,78.23
2023-03-29T08:41:35.728Z,77.29
2023-03-29T08:43:12.357Z,76.72
2023-03-29T08:44:38.031Z,75.28
2023-03-29T08:45:51.613Z,77.78
2023-03-29T08:47:07.392Z,75.54
2023-03-29T08:48:24.182Z,75.09
2023-03-29T08:49:27.381Z,75.10
2023-03-29T08:50:37.445Z,75.42
2023-03-29T08:51:45.598Z,79.61
2023-03-29T08:52:54.201Z,74.82
2023-03-29T08:54:02.920Z,78.08
2023-03-29T08:55:13.831Z,75.07
2023-03-29T08:56:20.945Z,76.62
2023-03-29T08:57:29.176Z,74.80
2023-03-29T08:58:33.854Z,74.99
2023-03-29T08:59:44.071Z,75.42
2023-03-29T09:00:49.865Z,73.53
2023-03-29T09:01:58.700Z,72.85
2023-03-29T09:03:24.627Z,69.22
2023-03-29T09:04:31.878Z,70.56
2023-03-29T09:05:38.123Z,69.22
2023-03-29T09:06:43.313Z,68.85
2023-03-29T09:07:45.395Z,71.13
2023-03-29T09:08:52.382Z,71.65
2023-03-29T09:09:54.630Z,71.18
2023-03-29T09:11:15.412Z,70.11
2023-03-29T09:14:29.617Z,72.81
2023-03-29T09:15:43.028Z,73.83
2023-03-29T09:16:55.778Z,72.53
2023-03-29T09:18:04.549Z,72.15
2023-03-29T09:19:21.636Z,71.38
2023-03-29T09:20:38.545Z,73.37
2023-03-29T09:21:49.612Z,74.26
2023-03-29T09:23:02.420Z,71.87
2023-03-29T09:24:20.539Z,73.20
2023-03-29T09:25:27.655Z,71.95
2023-03-29T09:26:39.814Z,76.74
2023-03-29T09:27:51.495Z,76.24
2023-03-29T09:29:00.599Z,75.60
2023-03-29T09:30:21.516Z,77.85
2023-03-29T09:31:29.997Z,78.76
2023-03-29T09:32:41.598Z,75.93
2023-03-29T09:33:49.875Z,73.25
2023-03-29T09:34:59.088Z,73.57
2023-03-29T09:36:08.674Z,70.82
2023-03-29T09:37:21.524Z,68.32
2023-03-29T09:38:26.181Z,67.92
2023-03-29T09:39:31.972Z,71.26
2023-03-29T09:40:42.888Z,70.20
2023-03-29T09:41:51.998Z,70.05
2023-03-29T09:42:58.631Z,66.71
2023-03-29T09:44:12.748Z,64.37
2023-03-29T09:45:25.864Z,61.74
2023-03-29T09:46:36.727Z,62.20
2023-03-29T09:47:46.157Z,60.22
2023-03-29T09:48:53.478Z,63.99
2023-03-29T09:50:02.192Z,63.03
2023-03-29T09:51:10.056Z,61.98
2023-03-29T09:52:17.613Z,63.65
2023-03-29T09:53:24.243Z,65.40
2023-03-29T09:54:26.652Z,65.09
2023-03-29T09:55:34.280Z,62.60
2023-03-29T09:56:39.445Z,61.43
2023-03-29T09:57:41.948Z,63.71
2023-03-29T09:58:48.169Z,61.71
2023-03-29T09:59:51.758Z,62.22
2023-03-29T10:01:00.028Z,58.90
2023-03-29T10:02:13.173Z,57.01
2023-03-29T10:03:22.434Z,57.06
2023-03-29T10:04:29.177Z,58.63
2023-03-29T10:05:38.335Z,56.46
2023-03-29T10:06:43.958Z,54.41
2023-03-29T10:07:51.296Z,54.72
2023-03-29T10:08:59.168Z,54.46
2023-03-29T10:10:01.612Z,55.54
2023-03-29T10:11:10.688Z,56.67
2023-03-29T10:12:13.854Z,57.53
2023-03-29T10:13:23.614Z,55.37
2023-03-29T10:14:36.341Z,53.22
2023-03-29T10:15:38.792Z,53.09
2023-03-29T10:16:46.488Z,52.48
2023-03-29T10:18:01.447Z,52.17
2023-03-29T10:19:21.074Z,52.17
2023-03-29T10:20:25.408Z,51.81
2023-03-29T10:21:32.491Z,49.95
2023-03-29T10:22:41.810Z,47.79
2023-03-29T10:23:44.208Z,47.92
2023-03-29T10:24:52.255Z,48.20
2023-03-29T10:25:56.897Z,51.77
2023-03-29T10:27:04.661Z,52.38
2023-03-29T10:28:11.484Z,52.85
2023-03-29T10:29:14.151Z,51.66
2023-03-29T10:30:27.340Z,49.05
2023-03-29T10:31:31.678Z,48.69
2023-03-29T10:32:38.744Z,47.99
2023-03-29T10:33:43.558Z,48.02
2023-03-29T10:34:49.734Z,47.93
2023-03-29T10:35:54.659Z,48.27
2023-03-29T10:37:02.622Z,49.14
2023-03-29T10:38:07.895Z,49.97
2023-03-29T10:39:16.194Z,47.88
2023-03-29T10:40:22.304Z,47.36
2023-03-29T10:41:29.917Z,49.05
2023-03-29T10:42:31.986Z,48.19
2023-03-29T10:43:41.270Z,48.20
2023-03-29T10:44:55.020Z,48.43
2023-03-29T10:46:08.293Z,52.18
2023-03-29T10:47:19.732Z,52.59
2023-03-29T10:48:28.389Z,47.74
2023-03-29T10:49:43.606Z,47.20
2023-03-29T10:50:53.367Z,44.70
2023-03-29T10:51:57.962Z,43.42
2023-03-29T10:53:00.725Z,43.99
2023-03-29T10:54:06.992Z,43.54
2023-03-29T10:55:12.866Z,43.36
2023-03-29T10:56:40.468Z,42.87
2023-03-29T10:58:01.212Z,42.94
2023-03-29T10:59:27.637Z,44.08
2023-03-29T11:00:40.128Z,44.14
2023-03-29T11:01:51.439Z,45.88
2023-03-29T11:03:16.504Z,46.13
2023-03-29T11:04:29.442Z,45.69
2023-03-29T11:05:41.758Z,43.45
2023-03-29T11:06:55.981Z,44.49
2023-03-29T11:08:31.746Z,44.40
2023-03-29T11:09:51.456Z,43.88
2023-03-29T11:11:09.043Z,43.08
2023-03-29T11:12:22.009Z,41.84
2023-03-29T11:13:35.247Z,42.33
2023-03-29T11:14:49.124Z,41.81
2023-03-29T11:16:05.007Z,43.70
2023-03-29T11:17:24.422Z,45.38
2023-03-29T11:18:53.314Z,44.91
2023-03-29T11:20:07.804Z,46.50
2023-03-29T11:21:24.213Z,46.38
2023-03-29T11:22:38.564Z,45.63
2023-03-29T11:23:51.483Z,46.20
2023-03-29T11:25:16.865Z,44.51
2023-03-29T11:26:28.197Z,45.62
2023-03-29T11:27:38.930Z,46.55
2023-03-29T11:28:53.199Z,46.70
2023-03-29T11:30:06.800Z,47.80
2023-03-29T11:31:20.591Z,46.95
2023-03-29T11:32:29.880Z,47.08
2023-03-29T11:33:49.793Z,50.74
2023-03-29T11:35:06.654Z,49.29
2023-03-29T11:36:20.103Z,47.56
2023-03-29T11:37:29.119Z,48.57
2023-03-29T11:38:40.095Z,47.54
2023-03-29T11:39:57.141Z,48.98
2023-03-29T11:41:08.653Z,45.84
2023-03-29T11:42:20.526Z,48.20
2023-03-29T11:43:32.260Z,47.01
2023-03-29T11:44:38.681Z,47.04
2023-03-29T11:45:47.053Z,49.12
2023-03-29T11:46:57.459Z,46.88
2023-03-29T11:48:03.026Z,47.07
2023-03-29T11:49:15.681Z,45.84
2023-03-29T11:50:22.213Z,44.20
2023-03-29T11:51:35.138Z,44.48
2023-03-29T11:52:41.093Z,44.09
2023-03-29T11:53:56.404Z,45.24
2023-03-29T11:55:09.279Z,46.03
2023-03-29T11:56:17.130Z,45.59
2023-03-29T11:57:27.898Z,46.20
2023-03-29T11:58:37.388Z,46.86
2023-03-29T11:59:48.829Z,45.33
2023-03-29T12:00:57.129Z,45.55
2023-03-29T12:02:08.415Z,44.55
2023-03-29T12:03:17.055Z,44.24
2023-03-29T12:04:25.310Z,44.43
2023-03-29T12:05:36.183Z,42.91
2023-03-29T12:06:48.048Z,43.57
2023-03-29T12:07:57.701Z,45.13
2023-03-29T12:09:04.161Z,43.49
2023-03-29T12:10:17.381Z,43.72
2023-03-29T12:11:30.297Z,45.19
2023-03-29T12:12:44.507Z,45.16
2023-03-29T12:13:55.359Z,46.26
2023-03-29T12:15:07.209Z,47.58
2023-03-29T12:16:14.674Z,47.97
2023-03-29T12:17:23.639Z,49.24
2023-03-29T12:18:33.157Z,49.52
2023-03-29T12:19:42.802Z,47.62
2023-03-29T12:20:52.640Z,46.34
2023-03-29T12:21:58.361Z,48.41
2023-03-29T12:23:03.571Z,47.44
2023-03-29T12:24:08.999Z,46.39
2023-03-29T12:25:21.935Z,47.83
2023-03-29T12:26:53.908Z,48.12
2023-03-29T12:28:10.931Z,46.89
2023-03-29T12:29:28.935Z,46.54
2023-03-29T12:30:52.487Z,48.35
2023-03-29T12:32:07.240Z,48.43
2023-03-29T12:33:32.779Z,48.12
2023-03-29T12:34:54.624Z,48.41
2023-03-29T12:36:14.403Z,48.98
2023-03-29T12:37:37.501Z,47.70
2023-03-29T12:38:43.605Z,48.81
2023-03-29T12:39:45.889Z,47.55
2023-03-29T12:40:57.356Z,47.79
2023-03-29T12:42:15.524Z,46.74
2023-03-29T12:43:27.258Z,47.59
2023-03-29T12:44:33.170Z,49.29
2023-03-29T12:45:41.615Z,48.99
2023-03-29T12:46:47.439Z,47.54
2023-03-29T12:47:54.431Z,44.98
2023-03-29T12:49:06.025Z,44.89
2023-03-29T12:50:28.592Z,46.51
2023-03-29T12:51:35.932Z,49.51
2023-03-29T12:52:45.098Z,46.74
2023-03-29T12:53:49.654Z,49.01
2023-03-29T12:54:58.994Z,48.19
2023-03-29T12:56:14.015Z,50.09
2023-03-29T12:57:24.183Z,48.65
2023-03-29T12:58:39.686Z,48.59
2023-03-29T12:59:48.543Z,47.88
2023-03-29T13:01:23.448Z,48.83
2023-03-29T13:02:47.236Z,47.19
2023-03-29T13:03:52.238Z,48.31
2023-03-29T13:05:00.395Z,49.37
2023-03-29T13:06:05.412Z,47.92
2023-03-29T13:07:17.481Z,50.47
2023-03-29T13:08:28.089Z,48.42
2023-03-29T13:11:37.335Z,46.66
2023-03-29T13:12:44.822Z,46.29
2023-03-29T13:13:53.526Z,47.48
2023-03-29T13:15:00.743Z,46.57
2023-03-29T13:16:17.941Z,47.26
2023-03-29T13:17:26.233Z,48.33
2023-03-29T13:18:39.442Z,50.29
2023-03-29T13:19:53.441Z,48.32
2023-03-29T13:21:07.601Z,47.48
2023-03-29T13:22:25.373Z,46.36
2023-03-29T13:23:44.054Z,47.13
2023-03-29T13:26:55.878Z,47.20
2023-03-29T13:28:03.351Z,47.69
2023-03-29T13:29:24.144Z,47.36
2023-03-29T13:30:44.293Z,45.79
2023-03-29T13:31:59.073Z,48.46
2023-03-29T13:33:29.400Z,46.20
2023-03-29T13:34:43.254Z,45.83
2023-03-29T13:35:54.639Z,48.14
2023-03-29T13:37:08.743Z,48.58
2023-03-29T13:38:21.714Z,46.54
2023-03-29T13:39:33.161Z,46.27
2023-03-29T13:40:45.261Z,46.77
2023-03-29T13:41:52.875Z,47.59
2023-03-29T13:43:03.260Z,47.92
2023-03-29T13:44:20.179Z,46.80
2023-03-29T13:45:29.736Z,47.07
2023-03-29T13:46:43.132Z,48.29
2023-03-29T13:47:54.870Z,50.35
2023-03-29T13:49:16.023Z,49.06
2023-03-29T13:50:22.997Z,46.88
2023-03-29T13:51:36.427Z,45.87
2023-03-29T13:52:47.700Z,45.18
2023-03-29T13:53:55.960Z,46.21
2023-03-29T13:55:07.226Z,44.62
2023-03-29T13:56:17.476Z,45.19
2023-03-29T13:57:25.770Z,45.60
2023-03-29T13:58:36.142Z,44.92
2023-03-29T13:59:47.532Z,45.11
2023-03-29T14:00:56.946Z,46.78
2023-03-29T14:02:03.082Z,46.51
2023-03-29T14:03:10.883Z,48.36
2023-03-29T14:04:16.725Z,48.51
2023-03-29T14:05:26.295Z,47.25
2023-03-29T14:06:35.029Z,47.64
2023-03-29T14:07:42.558Z,47.10
2023-03-29T14:08:48.004Z,48.25
2023-03-29T14:09:53.890Z,47.93
2023-03-29T14:11:05.082Z,48.72
2023-03-29T14:12:12.681Z,48.74
2023-03-29T14:13:19.718Z,48.95
2023-03-29T14:14:24.320Z,48.85
2023-03-29T14:15:39.741Z,49.36
2023-03-29T14:16:42.347Z,49.69
2023-03-29T14:17:47.797Z,49.70
2023-03-29T14:18:53.064Z,49.10
2023-03-29T14:20:00.780Z,49.23
2023-03-29T14:21:03.122Z,50.79
2023-03-29T14:22:12.421Z,50.53
2023-03-29T14:23:23.662Z,51.44
2023-03-29T14:24:28.769Z,52.97
2023-03-29T14:25:33.560Z,52.93
2023-03-29T14:26:41.346Z,53.83
2023-03-29T14:27:46.947Z,54.12
2023-03-29T14:28:53.644Z,53.94
2023-03-29T14:29:56.045Z,54.29